sensor_id;sensor_type;location;lat;lon;timestamp;temperature;humidity
30250;DHT22;17064;47.974;13.826;2023-03-12T00:01:38;-1.20;99.90
30250;DHT22;17064;47.974;13.826;2023-03-12T00:06:39;-1.20;99.90
30250;DHT22;17064;47.974;13.826;2023-03-12T00:11:40;-1.20;99.90
30250;DHT22;17064;47.974;13.826;2023-03-12T00:16:41;-1.30;99.90
30250;DHT22;17064;47.974;13.826;2023-03-12T00:21:41;-1.40;99.90
30250;DHT22;17064;47.974;13.826;2023-03-12T00:26:42;-1.40;99.90
30250;DHT22;17064;47.974;13.826;2023-03-12T00:31:43;-1.60;99.90
30250;DHT22;17064;47.974;13.826;2023-03-12T00:36:44;-1.70;99.90
30250;DHT22;17064;47.974;13.826;2023-03-12T00:41:45;-1.70;99.90
30250;DHT22;17064;47.974;13.826;2023-03-12T00:46:48;-1.70;99.90
30250;DHT22;17064;47.974;13.826;2023-03-12T00:51:49;-1.80;99.90
30250;DHT22;17064;47.974;13.826;2023-03-12T00:56:50;-1.90;99.90
30250;DHT22;17064;47.974;13.826;2023-03-12T01:01:50;-1.90;99.90
30250;DHT22;17064;47.974;13.826;2023-03-12T01:06:51;-2.00;99.90
30250;DHT22;17064;47.974;13.826;2023-03-12T01:11:52;-2.00;99.90
30250;DHT22;17064;47.974;13.826;2023-03-12T01:16:52;-2.00;99.90
30250;DHT22;17064;47.974;13.826;2023-03-12T01:21:53;-2.10;99.90
30250;DHT22;17064;47.974;13.826;2023-03-12T01:26:54;-2.10;99.90
30250;DHT22;17064;47.974;13.826;2023-03-12T01:31:55;-2.10;99.90
30250;DHT22;17064;47.974;13.826;2023-03-12T01:36:56;-2.10;99.90
30250;DHT22;17064;47.974;13.826;2023-03-12T01:41:57;-2.10;99.90
30250;DHT22;17064;47.974;13.826;2023-03-12T01:46:58;-2.20;99.90
30250;DHT22;17064;47.974;13.826;2023-03-12T01:52:02;-2.30;99.90
30250;DHT22;17064;47.974;13.826;2023-03-12T01:57:07;-2.30;99.90
30250;DHT22;17064;47.974;13.826;2023-03-12T02:02:09;-2.30;99.90
30250;DHT22;17064;47.974;13.826;2023-03-12T02:07:13;-2.40;99.90
30250;DHT22;17064;47.974;13.826;2023-03-12T02:12:14;-2.50;99.90
30250;DHT22;17064;47.974;13.826;2023-03-12T02:17:15;-2.60;99.90
30250;DHT22;17064;47.974;13.826;2023-03-12T02:22:16;-2.60;99.90
30250;DHT22;17064;47.974;13.826;2023-03-12T02:27:18;-2.70;99.90
30250;DHT22;17064;47.974;13.826;2023-03-12T02:32:25;-2.70;99.90
30250;DHT22;17064;47.974;13.826;2023-03-12T02:37:26;-2.80;99.90
30250;DHT22;17064;47.974;13.826;2023-03-12T02:42:26;-2.80;99.90
30250;DHT22;17064;47.974;13.826;2023-03-12T02:47:27;-2.90;99.90
30250;DHT22;17064;47.974;13.826;2023-03-12T02:52:28;-2.90;99.90
30250;DHT22;17064;47.974;13.826;2023-03-12T02:57:34;-2.90;99.90
30250;DHT22;17064;47.974;13.826;2023-03-12T03:02:40;-3.00;99.90
30250;DHT22;17064;47.974;13.826;2023-03-12T03:07:41;-3.10;99.90
30250;DHT22;17064;47.974;13.826;2023-03-12T03:12:42;-3.10;99.90
30250;DHT22;17064;47.974;13.826;2023-03-12T03:17:43;-3.10;99.90
30250;DHT22;17064;47.974;13.826;2023-03-12T03:22:45;-3.00;99.90
30250;DHT22;17064;47.974;13.826;2023-03-12T03:27:46;-3.00;99.90
30250;DHT22;17064;47.974;13.826;2023-03-12T03:32:48;-3.00;99.90
30250;DHT22;17064;47.974;13.826;2023-03-12T03:37:49;-3.00;99.90
30250;DHT22;17064;47.974;13.826;2023-03-12T03:42:51;-2.90;99.90
30250;DHT22;17064;47.974;13.826;2023-03-12T03:47:51;-2.80;99.90
30250;DHT22;17064;47.974;13.826;2023-03-12T03:52:52;-2.80;99.90
30250;DHT22;17064;47.974;13.826;2023-03-12T03:57:53;-2.70;99.90
30250;DHT22;17064;47.974;13.826;2023-03-12T04:03:00;-2.70;99.90
30250;DHT22;17064;47.974;13.826;2023-03-12T04:08:01;-2.60;99.90
30250;DHT22;17064;47.974;13.826;2023-03-12T04:13:02;-2.60;99.90
30250;DHT22;17064;47.974;13.826;2023-03-12T04:18:03;-2.50;99.90
30250;DHT22;17064;47.974;13.826;2023-03-12T04:23:04;-2.50;99.90
30250;DHT22;17064;47.974;13.826;2023-03-12T04:28:05;-2.50;99.90
30250;DHT22;17064;47.974;13.826;2023-03-12T04:33:06;-2.50;99.90
30250;DHT22;17064;47.974;13.826;2023-03-12T04:38:07;-2.50;99.90
30250;DHT22;17064;47.974;13.826;2023-03-12T04:43:09;-2.50;99.90
30250;DHT22;17064;47.974;13.826;2023-03-12T04:48:09;-2.50;99.90
30250;DHT22;17064;47.974;13.826;2023-03-12T04:53:10;-2.50;99.90
30250;DHT22;17064;47.974;13.826;2023-03-12T04:58:11;-2.50;99.90
30250;DHT22;17064;47.974;13.826;2023-03-12T05:03:12;-2.50;99.90
30250;DHT22;17064;47.974;13.826;2023-03-12T05:08:13;-2.60;99.90
30250;DHT22;17064;47.974;13.826;2023-03-12T05:13:19;-2.60;99.90
30250;DHT22;17064;47.974;13.826;2023-03-12T05:18:21;-2.60;99.90
30250;DHT22;17064;47.974;13.826;2023-03-12T05:23:21;-2.50;99.90
30250;DHT22;17064;47.974;13.826;2023-03-12T05:28:22;-2.50;99.90
30250;DHT22;17064;47.974;13.826;2023-03-12T05:33:28;-2.40;99.90
30250;DHT22;17064;47.974;13.826;2023-03-12T05:38:29;-2.30;99.90
30250;DHT22;17064;47.974;13.826;2023-03-12T05:43:31;-2.20;99.90
30250;DHT22;17064;47.974;13.826;2023-03-12T05:48:32;-2.10;99.90
30250;DHT22;17064;47.974;13.826;2023-03-12T05:53:33;-2.00;99.90
30250;DHT22;17064;47.974;13.826;2023-03-12T05:58:34;-1.90;99.90
30250;DHT22;17064;47.974;13.826;2023-03-12T06:03:41;-1.80;99.90
30250;DHT22;17064;47.974;13.826;2023-03-12T06:08:42;-1.70;99.90
30250;DHT22;17064;47.974;13.826;2023-03-12T06:13:43;-1.60;99.90
30250;DHT22;17064;47.974;13.826;2023-03-12T06:18:44;-1.50;99.90
30250;DHT22;17064;47.974;13.826;2023-03-12T06:23:47;-1.40;99.90
30250;DHT22;17064;47.974;13.826;2023-03-12T06:28:49;-1.20;99.90
30250;DHT22;17064;47.974;13.826;2023-03-12T06:33:50;-1.10;99.90
30250;DHT22;17064;47.974;13.826;2023-03-12T06:38:53;-0.90;99.90
30250;DHT22;17064;47.974;13.826;2023-03-12T06:43:53;-0.80;99.90
30250;DHT22;17064;47.974;13.826;2023-03-12T06:48:54;-0.60;99.90
30250;DHT22;17064;47.974;13.826;2023-03-12T06:53:55;-0.40;99.90
30250;DHT22;17064;47.974;13.826;2023-03-12T06:58:56;-0.10;99.90
30250;DHT22;17064;47.974;13.826;2023-03-12T07:03:57;0.20;99.90
30250;DHT22;17064;47.974;13.826;2023-03-12T07:08:57;0.40;99.90
30250;DHT22;17064;47.974;13.826;2023-03-12T07:13:58;0.50;99.90
30250;DHT22;17064;47.974;13.826;2023-03-12T07:18:59;0.50;99.90
30250;DHT22;17064;47.974;13.826;2023-03-12T07:24:00;0.50;99.90
30250;DHT22;17064;47.974;13.826;2023-03-12T07:29:06;0.70;99.90
30250;DHT22;17064;47.974;13.826;2023-03-12T07:34:06;0.90;99.90
30250;DHT22;17064;47.974;13.826;2023-03-12T07:39:07;1.20;99.90
30250;DHT22;17064;47.974;13.826;2023-03-12T07:44:08;1.40;99.90
30250;DHT22;17064;47.974;13.826;2023-03-12T07:49:09;1.60;99.90
30250;DHT22;17064;47.974;13.826;2023-03-12T07:54:10;1.90;99.90
30250;DHT22;17064;47.974;13.826;2023-03-12T07:59:10;2.20;99.90
30250;DHT22;17064;47.974;13.826;2023-03-12T08:04:11;2.60;99.90
30250;DHT22;17064;47.974;13.826;2023-03-12T08:09:12;2.90;99.90
30250;DHT22;17064;47.974;13.826;2023-03-12T08:14:13;3.10;99.90
30250;DHT22;17064;47.974;13.826;2023-03-12T08:19:13;3.30;99.90
30250;DHT22;17064;47.974;13.826;2023-03-12T08:24:14;3.50;99.90
30250;DHT22;17064;47.974;13.826;2023-03-12T08:29:16;3.60;99.90
30250;DHT22;17064;47.974;13.826;2023-03-12T08:34:17;3.60;99.90
30250;DHT22;17064;47.974;13.826;2023-03-12T08:39:17;3.80;99.90
30250;DHT22;17064;47.974;13.826;2023-03-12T08:44:18;4.00;99.90
30250;DHT22;17064;47.974;13.826;2023-03-12T08:49:20;4.10;99.90
30250;DHT22;17064;47.974;13.826;2023-03-12T08:54:21;4.30;99.90
30250;DHT22;17064;47.974;13.826;2023-03-12T08:59:21;4.60;99.90
30250;DHT22;17064;47.974;13.826;2023-03-12T09:04:22;4.90;99.90
30250;DHT22;17064;47.974;13.826;2023-03-12T09:09:23;5.10;99.90
30250;DHT22;17064;47.974;13.826;2023-03-12T09:14:24;5.20;99.90
30250;DHT22;17064;47.974;13.826;2023-03-12T09:19:25;5.20;99.90
30250;DHT22;17064;47.974;13.826;2023-03-12T09:24:26;5.00;99.90
30250;DHT22;17064;47.974;13.826;2023-03-12T09:29:26;5.00;99.90
30250;DHT22;17064;47.974;13.826;2023-03-12T09:34:27;4.90;99.90
30250;DHT22;17064;47.974;13.826;2023-03-12T09:39:28;4.90;99.90
30250;DHT22;17064;47.974;13.826;2023-03-12T09:44:38;4.80;99.90
30250;DHT22;17064;47.974;13.826;2023-03-12T09:50:00;4.70;99.70
30250;DHT22;17064;47.974;13.826;2023-03-12T09:55:07;4.70;99.90
30250;DHT22;17064;47.974;13.826;2023-03-12T10:00:21;4.60;99.90
30250;DHT22;17064;47.974;13.826;2023-03-12T10:05:39;4.50;99.90
30250;DHT22;17064;47.974;13.826;2023-03-12T10:10:48;4.40;99.90
30250;DHT22;17064;47.974;13.826;2023-03-12T10:26:42;4.20;99.90
30250;DHT22;17064;47.974;13.826;2023-03-12T10:37:36;4.40;99.90
30250;DHT22;17064;47.974;13.826;2023-03-12T10:42:38;4.20;99.90
30250;DHT22;17064;47.974;13.826;2023-03-12T10:47:41;4.10;99.90
30250;DHT22;17064;47.974;13.826;2023-03-12T10:52:43;4.00;99.90
30250;DHT22;17064;47.974;13.826;2023-03-12T10:57:44;3.90;99.90
30250;DHT22;17064;47.974;13.826;2023-03-12T11:02:45;3.80;99.90
30250;DHT22;17064;47.974;13.826;2023-03-12T11:07:46;3.80;99.90
30250;DHT22;17064;47.974;13.826;2023-03-12T11:18:36;3.70;99.90
30250;DHT22;17064;47.974;13.826;2023-03-12T11:23:39;4.10;99.90
30250;DHT22;17064;47.974;13.826;2023-03-12T11:34:25;4.50;99.90
30250;DHT22;17064;47.974;13.826;2023-03-12T11:45:07;5.50;99.90
30250;DHT22;17064;47.974;13.826;2023-03-12T11:50:23;5.60;99.90
30250;DHT22;17064;47.974;13.826;2023-03-12T12:01:12;5.90;99.90
30250;DHT22;17064;47.974;13.826;2023-03-12T12:06:41;6.00;99.90
30250;DHT22;17064;47.974;13.826;2023-03-12T12:12:13;6.20;99.90
30250;DHT22;17064;47.974;13.826;2023-03-12T12:32:58;5.90;99.90
30250;DHT22;17064;47.974;13.826;2023-03-12T12:43:29;5.60;99.90
30250;DHT22;17064;47.974;13.826;2023-03-12T12:48:39;5.60;99.90
30250;DHT22;17064;47.974;13.826;2023-03-12T13:04:26;4.80;99.90
30250;DHT22;17064;47.974;13.826;2023-03-12T13:09:40;4.70;99.90
30250;DHT22;17064;47.974;13.826;2023-03-12T13:14:44;4.80;99.90
30250;DHT22;17064;47.974;13.826;2023-03-12T13:19:47;4.90;99.90
30250;DHT22;17064;47.974;13.826;2023-03-12T13:29:57;5.20;99.90
30250;DHT22;17064;47.974;13.826;2023-03-12T13:34:59;5.10;99.90
30250;DHT22;17064;47.974;13.826;2023-03-12T13:45:29;5.00;99.90
30250;DHT22;17064;47.974;13.826;2023-03-12T13:50:40;5.00;99.90
30250;DHT22;17064;47.974;13.826;2023-03-12T13:55:42;5.00;99.90
30250;DHT22;17064;47.974;13.826;2023-03-12T14:01:00;5.10;99.90
30250;DHT22;17064;47.974;13.826;2023-03-12T14:06:10;5.00;99.90
30250;DHT22;17064;47.974;13.826;2023-03-12T14:16:43;4.70;99.90
30250;DHT22;17064;47.974;13.826;2023-03-12T14:21:52;4.70;99.90
30250;DHT22;17064;47.974;13.826;2023-03-12T14:26:55;4.60;99.90
30250;DHT22;17064;47.974;13.826;2023-03-12T14:31:59;4.70;99.90
30250;DHT22;17064;47.974;13.826;2023-03-12T14:37:06;4.70;99.90
30250;DHT22;17064;47.974;13.826;2023-03-12T14:42:26;4.90;99.90
30250;DHT22;17064;47.974;13.826;2023-03-12T14:47:28;5.00;99.90
30250;DHT22;17064;47.974;13.826;2023-03-12T14:52:29;5.10;99.90
30250;DHT22;17064;47.974;13.826;2023-03-12T14:57:30;5.20;99.90
30250;DHT22;17064;47.974;13.826;2023-03-12T15:02:41;5.30;99.90
30250;DHT22;17064;47.974;13.826;2023-03-12T15:07:45;5.20;99.90
30250;DHT22;17064;47.974;13.826;2023-03-12T15:12:53;5.10;99.90
30250;DHT22;17064;47.974;13.826;2023-03-12T15:17:54;5.10;99.90
30250;DHT22;17064;47.974;13.826;2023-03-12T15:22:56;5.00;99.90
30250;DHT22;17064;47.974;13.826;2023-03-12T15:28:24;5.00;99.90
30250;DHT22;17064;47.974;13.826;2023-03-12T15:33:25;5.00;99.90
30250;DHT22;17064;47.974;13.826;2023-03-12T15:38:26;5.00;99.90
30250;DHT22;17064;47.974;13.826;2023-03-12T15:43:28;5.10;99.90
30250;DHT22;17064;47.974;13.826;2023-03-12T15:48:37;5.10;99.90
30250;DHT22;17064;47.974;13.826;2023-03-12T15:53:39;5.10;99.90
30250;DHT22;17064;47.974;13.826;2023-03-12T15:58:41;5.10;99.90
30250;DHT22;17064;47.974;13.826;2023-03-12T16:03:43;5.10;99.90
30250;DHT22;17064;47.974;13.826;2023-03-12T16:08:57;5.20;99.90
30250;DHT22;17064;47.974;13.826;2023-03-12T16:14:07;5.20;99.90
30250;DHT22;17064;47.974;13.826;2023-03-12T16:19:14;5.20;99.90
30250;DHT22;17064;47.974;13.826;2023-03-12T16:24:16;5.40;99.90
30250;DHT22;17064;47.974;13.826;2023-03-12T16:29:18;5.40;99.90
30250;DHT22;17064;47.974;13.826;2023-03-12T16:34:19;5.50;99.90
30250;DHT22;17064;47.974;13.826;2023-03-12T16:39:21;5.50;99.90
30250;DHT22;17064;47.974;13.826;2023-03-12T16:44:23;5.60;99.90
30250;DHT22;17064;47.974;13.826;2023-03-12T16:49:26;5.70;99.90
30250;DHT22;17064;47.974;13.826;2023-03-12T16:54:27;5.70;99.90
30250;DHT22;17064;47.974;13.826;2023-03-12T16:59:28;5.60;99.90
30250;DHT22;17064;47.974;13.826;2023-03-12T17:04:31;5.60;99.90
30250;DHT22;17064;47.974;13.826;2023-03-12T17:09:32;5.60;99.90
30250;DHT22;17064;47.974;13.826;2023-03-12T17:14:34;5.60;99.90
30250;DHT22;17064;47.974;13.826;2023-03-12T17:19:35;5.70;99.90
30250;DHT22;17064;47.974;13.826;2023-03-12T17:24:36;5.70;99.90
30250;DHT22;17064;47.974;13.826;2023-03-12T17:29:37;5.60;99.90
30250;DHT22;17064;47.974;13.826;2023-03-12T17:34:38;5.70;99.90
30250;DHT22;17064;47.974;13.826;2023-03-12T17:39:39;5.80;99.90
30250;DHT22;17064;47.974;13.826;2023-03-12T17:44:40;5.80;99.90
30250;DHT22;17064;47.974;13.826;2023-03-12T17:49:42;5.80;99.90
30250;DHT22;17064;47.974;13.826;2023-03-12T17:54:43;5.80;99.90
30250;DHT22;17064;47.974;13.826;2023-03-12T17:59:44;5.90;99.90
30250;DHT22;17064;47.974;13.826;2023-03-12T18:04:45;5.90;99.90
30250;DHT22;17064;47.974;13.826;2023-03-12T18:09:46;6.00;99.90
30250;DHT22;17064;47.974;13.826;2023-03-12T18:14:47;6.00;99.90
30250;DHT22;17064;47.974;13.826;2023-03-12T18:19:48;6.00;99.90
30250;DHT22;17064;47.974;13.826;2023-03-12T18:24:50;6.00;99.90
30250;DHT22;17064;47.974;13.826;2023-03-12T18:29:51;6.00;99.90
30250;DHT22;17064;47.974;13.826;2023-03-12T18:34:52;6.00;99.90
30250;DHT22;17064;47.974;13.826;2023-03-12T18:39:54;6.00;99.90
30250;DHT22;17064;47.974;13.826;2023-03-12T18:44:55;6.00;99.90
30250;DHT22;17064;47.974;13.826;2023-03-12T18:49:57;6.00;99.90
30250;DHT22;17064;47.974;13.826;2023-03-12T18:54:58;6.00;99.90
30250;DHT22;17064;47.974;13.826;2023-03-12T18:59:59;6.00;99.90
30250;DHT22;17064;47.974;13.826;2023-03-12T19:05:01;6.00;99.90
30250;DHT22;17064;47.974;13.826;2023-03-12T19:10:04;6.00;99.90
30250;DHT22;17064;47.974;13.826;2023-03-12T19:15:06;6.20;99.90
30250;DHT22;17064;47.974;13.826;2023-03-12T19:20:08;6.20;99.90
30250;DHT22;17064;47.974;13.826;2023-03-12T19:25:09;6.30;99.90
30250;DHT22;17064;47.974;13.826;2023-03-12T19:30:11;6.30;99.90
30250;DHT22;17064;47.974;13.826;2023-03-12T19:35:14;6.40;99.90
30250;DHT22;17064;47.974;13.826;2023-03-12T19:40:15;6.40;99.90
30250;DHT22;17064;47.974;13.826;2023-03-12T19:45:16;6.60;99.90
30250;DHT22;17064;47.974;13.826;2023-03-12T19:50:18;6.70;99.90
30250;DHT22;17064;47.974;13.826;2023-03-12T19:55:19;6.80;99.90
30250;DHT22;17064;47.974;13.826;2023-03-12T20:00:21;6.80;99.90
30250;DHT22;17064;47.974;13.826;2023-03-12T20:05:22;6.80;99.90
30250;DHT22;17064;47.974;13.826;2023-03-12T20:10:24;6.80;99.90
30250;DHT22;17064;47.974;13.826;2023-03-12T20:15:25;6.80;99.90
30250;DHT22;17064;47.974;13.826;2023-03-12T20:20:28;6.90;99.90
30250;DHT22;17064;47.974;13.826;2023-03-12T20:25:29;6.90;99.90
30250;DHT22;17064;47.974;13.826;2023-03-12T20:30:30;7.00;99.90
30250;DHT22;17064;47.974;13.826;2023-03-12T20:35:32;7.00;99.90
30250;DHT22;17064;47.974;13.826;2023-03-12T20:40:32;7.00;99.90
30250;DHT22;17064;47.974;13.826;2023-03-12T20:45:33;7.00;99.90
30250;DHT22;17064;47.974;13.826;2023-03-12T20:50:36;7.00;99.90
30250;DHT22;17064;47.974;13.826;2023-03-12T20:55:39;7.00;99.90
30250;DHT22;17064;47.974;13.826;2023-03-12T21:00:40;7.00;99.90
30250;DHT22;17064;47.974;13.826;2023-03-12T21:05:50;7.00;99.90
30250;DHT22;17064;47.974;13.826;2023-03-12T21:10:52;7.10;99.90
30250;DHT22;17064;47.974;13.826;2023-03-12T21:15:53;7.20;99.90
30250;DHT22;17064;47.974;13.826;2023-03-12T21:21:02;7.50;99.90
30250;DHT22;17064;47.974;13.826;2023-03-12T21:26:05;7.70;99.90
30250;DHT22;17064;47.974;13.826;2023-03-12T21:31:09;7.90;99.90
30250;DHT22;17064;47.974;13.826;2023-03-12T21:36:12;8.00;99.90
30250;DHT22;17064;47.974;13.826;2023-03-12T21:41:14;8.10;99.90
30250;DHT22;17064;47.974;13.826;2023-03-12T21:46:18;8.10;99.90
30250;DHT22;17064;47.974;13.826;2023-03-12T21:51:19;8.20;99.90
30250;DHT22;17064;47.974;13.826;2023-03-12T21:56:22;8.20;99.90
30250;DHT22;17064;47.974;13.826;2023-03-12T22:01:27;8.20;99.90
30250;DHT22;17064;47.974;13.826;2023-03-12T22:06:28;8.20;99.90
30250;DHT22;17064;47.974;13.826;2023-03-12T22:11:28;8.30;99.90
30250;DHT22;17064;47.974;13.826;2023-03-12T22:16:29;8.30;99.90
30250;DHT22;17064;47.974;13.826;2023-03-12T22:21:30;8.30;99.90
30250;DHT22;17064;47.974;13.826;2023-03-12T22:26:31;8.30;99.90
30250;DHT22;17064;47.974;13.826;2023-03-12T22:31:31;8.20;99.90
30250;DHT22;17064;47.974;13.826;2023-03-12T22:36:32;8.30;99.90
30250;DHT22;17064;47.974;13.826;2023-03-12T22:41:33;8.30;99.90
30250;DHT22;17064;47.974;13.826;2023-03-12T22:46:34;8.30;99.90
30250;DHT22;17064;47.974;13.826;2023-03-12T22:51:35;8.30;99.90
30250;DHT22;17064;47.974;13.826;2023-03-12T22:56:36;8.30;99.90
30250;DHT22;17064;47.974;13.826;2023-03-12T23:01:37;8.30;99.90
30250;DHT22;17064;47.974;13.826;2023-03-12T23:06:38;8.20;99.90
30250;DHT22;17064;47.974;13.826;2023-03-12T23:11:39;8.10;99.90
30250;DHT22;17064;47.974;13.826;2023-03-12T23:16:40;8.00;99.90
30250;DHT22;17064;47.974;13.826;2023-03-12T23:21:41;7.90;99.90
30250;DHT22;17064;47.974;13.826;2023-03-12T23:26:41;7.90;99.90
30250;DHT22;17064;47.974;13.826;2023-03-12T23:31:44;8.00;99.90
30250;DHT22;17064;47.974;13.826;2023-03-12T23:36:44;7.90;99.90
30250;DHT22;17064;47.974;13.826;2023-03-12T23:41:45;7.90;99.90
30250;DHT22;17064;47.974;13.826;2023-03-12T23:46:46;7.80;99.90
30250;DHT22;17064;47.974;13.826;2023-03-12T23:51:46;7.70;99.90
30250;DHT22;17064;47.974;13.826;2023-03-12T23:56:47;7.70;99.90
